Time;durP1;ratioP1;P1;durP2;ratioP2;P2;SDS_P1;SDS_P2;PMS_P1;PMS_P2;Temp;Humidity;BMP_temperature;BMP_pressure;BME280_temperature;BME280_humidity;BME280_pressure;Samples;Min_cycle;Max_cycle;Signal;HPM_P1;HPM_P2
2022/12/09 00:01:44;;;;;;;1097.22;83.22;;;;;;;;;;5010748;28;20053;-70
2022/12/09 00:04:10;;;;;;;1030.20;76.00;;;;;;;;;;5004797;28;20124;-69
2022/12/09 00:06:36;;;;;;;1364.30;85.85;;;;;;;;;;5005829;28;20356;-69
2022/12/09 00:09:02;;;;;;;1009.83;72.57;;;;;;;;;;5006100;28;20030;-69
2022/12/09 00:11:28;;;;;;;1213.50;76.40;;;;;;;;;;5004353;28;20080;-68
2022/12/09 00:13:56;;;;;;;619.00;57.10;;;;;;;;;;5006293;28;20046;-68
2022/12/09 00:16:22;;;;;;;1071.35;73.43;;;;;;;;;;5008383;28;20030;-70
2022/12/09 00:18:49;;;;;;;1189.25;81.65;;;;;;;;;;5004763;28;20029;-69
2022/12/09 00:21:19;;;;;;;462.75;52.25;;;;;;;;;;5008687;28;20025;-69
2022/12/09 00:23:46;;;;;;;782.85;60.42;;;;;;;;;;5005653;28;20034;-69
2022/12/09 00:26:12;;;;;;;807.42;64.80;;;;;;;;;;4999880;28;20050;-68
2022/12/09 00:28:38;;;;;;;521.50;61.80;;;;;;;;;;5007127;28;20161;-70
2022/12/09 00:31:06;;;;;;;383.80;56.25;;;;;;;;;;5012053;28;20088;-69
2022/12/09 00:33:33;;;;;;;363.42;56.78;;;;;;;;;;5008016;28;20080;-70
2022/12/09 00:36:06;;;;;;;787.42;69.10;;;;;;;;;;5005341;28;20049;-69
2022/12/09 00:38:33;;;;;;;423.75;52.05;;;;;;;;;;5006027;28;20491;-69
2022/12/09 00:40:59;;;;;;;401.63;49.92;;;;;;;;;;5007754;28;20061;-70
2022/12/09 00:43:25;;;;;;;461.48;52.33;;;;;;;;;;5006564;28;20045;-70
2022/12/09 00:45:51;;;;;;;510.75;54.05;;;;;;;;;;5005361;28;20033;-70
2022/12/09 00:48:17;;;;;;;340.85;51.28;;;;;;;;;;5011426;28;20026;-69
2022/12/09 00:50:44;;;;;;;476.67;55.47;;;;;;;;;;4999854;28;20036;-69
2022/12/09 00:53:10;;;;;;;361.55;51.90;;;;;;;;;;5007209;28;20017;-68
2022/12/09 00:55:36;;;;;;;337.35;50.85;;;;;;;;;;5008350;28;20036;-69
2022/12/09 00:58:03;;;;;;;352.13;50.60;;;;;;;;;;5005671;28;20969;-69
2022/12/09 01:00:29;;;;;;;313.20;49.47;;;;;;;;;;5005592;28;20557;-69
2022/12/09 01:02:56;;;;;;;314.08;53.55;;;;;;;;;;5010606;28;20052;-70
2022/12/09 01:05:22;;;;;;;311.95;52.95;;;;;;;;;;4998712;28;20045;-68
2022/12/09 01:07:48;;;;;;;291.60;53.22;;;;;;;;;;5006613;28;20022;-69
2022/12/09 01:10:15;;;;;;;295.73;50.95;;;;;;;;;;5006475;28;20026;-69
2022/12/09 01:12:41;;;;;;;319.73;52.50;;;;;;;;;;5006976;28;20100;-68
2022/12/09 01:15:07;;;;;;;335.48;53.70;;;;;;;;;;5007549;28;20037;-68
2022/12/09 01:17:35;;;;;;;310.00;52.00;;;;;;;;;;5006851;28;20033;-69
2022/12/09 01:20:03;;;;;;;292.23;51.70;;;;;;;;;;5005881;28;20022;-69
2022/12/09 01:22:29;;;;;;;262.70;51.17;;;;;;;;;;5006263;28;20056;-69
2022/12/09 01:24:56;;;;;;;263.50;52.72;;;;;;;;;;5007797;28;20026;-70
2022/12/09 01:27:22;;;;;;;253.95;51.13;;;;;;;;;;5007398;28;20069;-69
2022/12/09 01:29:48;;;;;;;283.35;48.67;;;;;;;;;;5002984;28;20499;-70
2022/12/09 01:32:15;;;;;;;233.82;47.53;;;;;;;;;;4997352;28;20044;-69
2022/12/09 01:34:41;;;;;;;291.15;48.17;;;;;;;;;;5006698;28;20042;-69
2022/12/09 01:37:07;;;;;;;247.95;45.90;;;;;;;;;;5007168;28;20494;-69
2022/12/09 01:39:33;;;;;;;251.38;44.78;;;;;;;;;;5005231;28;20525;-69
2022/12/09 01:42:03;;;;;;;298.08;51.50;;;;;;;;;;5005981;28;20038;-68
2022/12/09 01:44:30;;;;;;;211.30;41.35;;;;;;;;;;4995388;28;20454;-68
2022/12/09 01:46:57;;;;;;;243.38;44.83;;;;;;;;;;5008159;28;20071;-69
2022/12/09 01:49:26;;;;;;;219.45;43.22;;;;;;;;;;5006604;28;20033;-69
2022/12/09 01:51:59;;;;;;;218.95;44.33;;;;;;;;;;5006140;28;20048;-69
2022/12/09 01:54:25;;;;;;;233.75;45.20;;;;;;;;;;5007548;28;20040;-69
2022/12/09 01:56:52;;;;;;;239.30;46.35;;;;;;;;;;5001196;28;20244;-71
2022/12/09 01:59:18;;;;;;;249.73;45.53;;;;;;;;;;5009398;28;20034;-68
2022/12/09 02:01:47;;;;;;;228.52;43.70;;;;;;;;;;4999307;28;20054;-68
2022/12/09 02:04:14;;;;;;;198.13;41.15;;;;;;;;;;5007127;28;20459;-68
2022/12/09 02:06:40;;;;;;;217.13;41.90;;;;;;;;;;5015239;28;20480;-69
2022/12/09 02:09:09;;;;;;;235.68;42.17;;;;;;;;;;5000892;28;20034;-69
2022/12/09 02:11:42;;;;;;;232.23;43.05;;;;;;;;;;4999342;28;20034;-70
2022/12/09 02:14:08;;;;;;;216.63;40.58;;;;;;;;;;4995601;28;20018;-70
2022/12/09 02:16:37;;;;;;;220.70;40.35;;;;;;;;;;5006642;28;20041;-68
2022/12/09 02:19:12;;;;;;;186.25;36.65;;;;;;;;;;5018840;28;20410;-70
2022/12/09 02:21:49;;;;;;;192.25;35.47;;;;;;;;;;4991719;28;20022;-70
2022/12/09 02:24:21;;;;;;;181.68;35.88;;;;;;;;;;5006228;28;20109;-69
2022/12/09 02:26:48;;;;;;;170.88;35.25;;;;;;;;;;4997425;28;20030;-70
2022/12/09 02:29:25;;;;;;;215.65;37.53;;;;;;;;;;5004541;28;20040;-70
2022/12/09 02:31:57;;;;;;;187.98;35.10;;;;;;;;;;4993345;28;20037;-70
2022/12/09 02:34:26;;;;;;;135.95;35.85;;;;;;;;;;5006714;28;20026;-70
2022/12/09 02:37:19;;;;;;;138.25;33.03;;;;;;;;;;5006805;28;20034;-70
2022/12/09 02:39:56;;;;;;;130.60;31.05;;;;;;;;;;4998340;28;20030;-70
2022/12/09 02:42:27;;;;;;;134.98;31.27;;;;;;;;;;5028884;28;20029;-70
2022/12/09 02:44:55;;;;;;;126.40;29.27;;;;;;;;;;4999506;28;20072;-70
2022/12/09 02:47:24;;;;;;;140.13;31.15;;;;;;;;;;4998083;28;20045;-70
2022/12/09 02:49:52;;;;;;;120.47;30.35;;;;;;;;;;5013200;28;20025;-69
2022/12/09 02:52:20;;;;;;;134.75;30.83;;;;;;;;;;4996991;28;20030;-69
2022/12/09 02:54:46;;;;;;;130.00;33.40;;;;;;;;;;5012559;28;20502;-69
2022/12/09 02:57:15;;;;;;;134.52;32.45;;;;;;;;;;5015238;28;20030;-69
2022/12/09 02:59:43;;;;;;;124.93;32.67;;;;;;;;;;4997895;28;20038;-70
2022/12/09 03:02:17;;;;;;;132.93;32.65;;;;;;;;;;5008745;28;20069;-71
2022/12/09 03:04:46;;;;;;;117.43;32.47;;;;;;;;;;5010775;28;20029;-70
2022/12/09 03:07:29;;;;;;;136.68;32.67;;;;;;;;;;5010368;28;20022;-70
2022/12/09 03:10:01;;;;;;;125.53;33.63;;;;;;;;;;5009269;28;20109;-70
2022/12/09 03:12:29;;;;;;;133.55;34.40;;;;;;;;;;5007092;28;20048;-70
2022/12/09 03:14:56;;;;;;;124.22;30.75;;;;;;;;;;5007621;28;20037;-71
2022/12/09 03:17:28;;;;;;;131.80;31.60;;;;;;;;;;5010359;28;20594;-68
2022/12/09 03:20:00;;;;;;;117.30;32.08;;;;;;;;;;4995377;28;20053;-68
2022/12/09 03:22:27;;;;;;;102.97;31.15;;;;;;;;;;5009179;28;20033;-68
2022/12/09 03:25:02;;;;;;;111.20;29.45;;;;;;;;;;5002504;28;20022;-68
2022/12/09 03:27:32;;;;;;;108.53;30.60;;;;;;;;;;5006295;28;20520;-70
2022/12/09 03:30:00;;;;;;;108.93;29.67;;;;;;;;;;5007636;28;20100;-69
2022/12/09 03:32:27;;;;;;;106.88;29.88;;;;;;;;;;5009248;28;20073;-70
2022/12/09 03:34:57;;;;;;;97.30;28.40;;;;;;;;;;5003672;28;20119;-69
2022/12/09 03:37:23;;;;;;;108.07;29.88;;;;;;;;;;5008553;28;20038;-68
2022/12/09 03:39:50;;;;;;;113.78;30.17;;;;;;;;;;5012188;28;20356;-70
2022/12/09 03:42:22;;;;;;;124.22;31.25;;;;;;;;;;5007370;28;20435;-69
2022/12/09 03:44:50;;;;;;;109.22;27.27;;;;;;;;;;5009413;28;20561;-70
2022/12/09 03:47:16;;;;;;;110.63;28.83;;;;;;;;;;5009577;28;20041;-70
2022/12/09 03:49:42;;;;;;;124.75;28.63;;;;;;;;;;5005523;28;20498;-70
2022/12/09 03:52:27;;;;;;;122.28;29.35;;;;;;;;;;5008525;28;20025;-70
2022/12/09 03:54:57;;;;;;;129.95;28.40;;;;;;;;;;5003728;28;20030;-68
2022/12/09 03:57:23;;;;;;;124.03;29.85;;;;;;;;;;5004708;28;20112;-68
2022/12/09 03:59:53;;;;;;;136.27;29.63;;;;;;;;;;5006933;28;20032;-69
2022/12/09 04:02:20;;;;;;;110.63;27.25;;;;;;;;;;5002854;28;20137;-68
2022/12/09 04:04:46;;;;;;;129.77;28.67;;;;;;;;;;5008253;28;20026;-71
2022/12/09 04:07:12;;;;;;;128.57;29.38;;;;;;;;;;5004136;28;20065;-70
2022/12/09 04:09:40;;;;;;;151.70;30.48;;;;;;;;;;4996755;28;20025;-69
2022/12/09 04:12:06;;;;;;;139.70;29.55;;;;;;;;;;5008720;28;20395;-71
2022/12/09 04:14:32;;;;;;;131.88;27.52;;;;;;;;;;4997750;28;20113;-70
2022/12/09 04:16:59;;;;;;;135.90;29.90;;;;;;;;;;5007071;28;20076;-68
2022/12/09 04:19:25;;;;;;;151.65;31.08;;;;;;;;;;5007279;28;20026;-69
2022/12/09 04:21:51;;;;;;;149.50;31.50;;;;;;;;;;5004791;28;20038;-70
2022/12/09 04:24:17;;;;;;;138.68;31.55;;;;;;;;;;5008204;28;20088;-68
2022/12/09 04:26:44;;;;;;;146.65;31.95;;;;;;;;;;5005966;28;20467;-69
2022/12/09 04:29:11;;;;;;;143.63;30.45;;;;;;;;;;5009451;28;20025;-68
2022/12/09 04:31:37;;;;;;;145.77;32.92;;;;;;;;;;5007658;28;20042;-70
2022/12/09 04:34:03;;;;;;;144.45;31.50;;;;;;;;;;5007170;28;20056;-70
2022/12/09 04:36:29;;;;;;;125.50;31.05;;;;;;;;;;4998133;28;20543;-69
2022/12/09 04:38:55;;;;;;;142.55;32.65;;;;;;;;;;5005771;28;20045;-70
2022/12/09 04:41:22;;;;;;;131.82;29.60;;;;;;;;;;5008433;28;20022;-70
2022/12/09 04:43:48;;;;;;;132.65;29.58;;;;;;;;;;5006742;28;20030;-69
2022/12/09 04:46:16;;;;;;;130.52;31.17;;;;;;;;;;5006717;28;20022;-70
2022/12/09 04:48:42;;;;;;;137.13;31.67;;;;;;;;;;5006610;28;20091;-70
2022/12/09 04:51:10;;;;;;;136.73;29.10;;;;;;;;;;5015408;28;20030;-70
2022/12/09 04:53:38;;;;;;;136.32;31.40;;;;;;;;;;5005102;28;20034;-70
2022/12/09 04:56:05;;;;;;;138.07;32.05;;;;;;;;;;5007252;28;20335;-69
2022/12/09 04:58:32;;;;;;;140.82;32.50;;;;;;;;;;5011479;28;20036;-71
2022/12/09 05:00:58;;;;;;;133.48;32.35;;;;;;;;;;5005548;28;20111;-70
2022/12/09 05:03:24;;;;;;;144.70;32.70;;;;;;;;;;5007196;28;20041;-69
2022/12/09 05:05:51;;;;;;;132.88;32.92;;;;;;;;;;5003031;28;20034;-69
2022/12/09 05:08:18;;;;;;;129.65;31.02;;;;;;;;;;4976862;28;20061;-70
2022/12/09 05:10:49;;;;;;;129.40;29.67;;;;;;;;;;5005871;28;20022;-70
2022/12/09 05:13:15;;;;;;;123.05;29.90;;;;;;;;;;5006467;28;20033;-70
2022/12/09 05:15:42;;;;;;;134.70;31.17;;;;;;;;;;5002783;28;20041;-70
2022/12/09 05:18:09;;;;;;;140.82;32.05;;;;;;;;;;5005790;28;20061;-71
2022/12/09 05:20:37;;;;;;;120.32;28.88;;;;;;;;;;5007186;28;20030;-70
2022/12/09 05:23:04;;;;;;;126.35;28.90;;;;;;;;;;5004152;28;20120;-70
2022/12/09 05:25:30;;;;;;;130.82;30.90;;;;;;;;;;5004688;28;20050;-70
2022/12/09 05:27:56;;;;;;;122.07;30.15;;;;;;;;;;5006749;28;20097;-69
2022/12/09 05:30:22;;;;;;;139.43;30.90;;;;;;;;;;5007712;28;20088;-70
2022/12/09 05:32:48;;;;;;;150.70;29.23;;;;;;;;;;5001546;28;20549;-70
2022/12/09 05:35:14;;;;;;;143.98;29.20;;;;;;;;;;5004393;28;20593;-70
2022/12/09 05:37:40;;;;;;;141.85;30.85;;;;;;;;;;5006497;28;20141;-70
2022/12/09 05:40:07;;;;;;;146.63;29.38;;;;;;;;;;5006885;28;20030;-71
2022/12/09 05:42:33;;;;;;;142.82;28.52;;;;;;;;;;5008689;28;20038;-69
2022/12/09 05:44:59;;;;;;;122.30;25.48;;;;;;;;;;5005987;28;20026;-69
2022/12/09 05:47:25;;;;;;;128.70;25.17;;;;;;;;;;5006157;28;20382;-69
2022/12/09 05:49:51;;;;;;;117.63;25.67;;;;;;;;;;5007291;28;20037;-68
2022/12/09 05:52:17;;;;;;;134.90;26.75;;;;;;;;;;5001057;28;20112;-68
2022/12/09 05:54:44;;;;;;;208.65;30.98;;;;;;;;;;4999398;28;20091;-71
2022/12/09 05:57:10;;;;;;;135.70;22.27;;;;;;;;;;5005301;28;20087;-68
2022/12/09 05:59:36;;;;;;;91.22;20.45;;;;;;;;;;4996505;28;20099;-70
2022/12/09 06:02:02;;;;;;;87.35;20.73;;;;;;;;;;5004477;28;20065;-72
2022/12/09 06:04:29;;;;;;;92.32;21.40;;;;;;;;;;5006103;28;20025;-72
2022/12/09 06:06:55;;;;;;;82.43;21.00;;;;;;;;;;5006283;28;20497;-71
2022/12/09 06:09:21;;;;;;;87.55;22.38;;;;;;;;;;5004083;28;20298;-71
2022/12/09 06:11:47;;;;;;;106.38;23.63;;;;;;;;;;5004617;28;20053;-71
2022/12/09 06:14:13;;;;;;;108.25;21.25;;;;;;;;;;5004846;28;20034;-71
2022/12/09 06:16:40;;;;;;;235.68;24.92;;;;;;;;;;5003340;28;20099;-71
2022/12/09 06:19:06;;;;;;;227.23;26.42;;;;;;;;;;5000793;28;20018;-71
2022/12/09 06:21:32;;;;;;;413.33;34.75;;;;;;;;;;4997543;28;20037;-71
2022/12/09 06:23:58;;;;;;;506.90;42.33;;;;;;;;;;5006211;28;20038;-70
2022/12/09 06:26:25;;;;;;;585.95;42.00;;;;;;;;;;5004222;28;20030;-69
2022/12/09 06:28:52;;;;;;;242.35;31.63;;;;;;;;;;4995951;28;20128;-71
2022/12/09 06:31:18;;;;;;;146.25;26.98;;;;;;;;;;4996042;28;20635;-71
2022/12/09 06:33:45;;;;;;;115.60;26.27;;;;;;;;;;4997058;28;20029;-71
2022/12/09 06:36:11;;;;;;;125.07;30.08;;;;;;;;;;4999267;28;20100;-70
2022/12/09 06:38:37;;;;;;;119.07;28.45;;;;;;;;;;5004638;28;20033;-71
2022/12/09 06:41:07;;;;;;;114.22;27.00;;;;;;;;;;5003494;28;20025;-71
2022/12/09 06:43:34;;;;;;;93.32;22.02;;;;;;;;;;5005205;28;20108;-71
2022/12/09 06:46:00;;;;;;;135.32;32.15;;;;;;;;;;4988298;28;20092;-71
2022/12/09 06:48:26;;;;;;;129.35;30.63;;;;;;;;;;5001424;28;20046;-71
2022/12/09 06:50:52;;;;;;;138.45;31.00;;;;;;;;;;5001990;28;20038;-71
2022/12/09 06:53:18;;;;;;;124.57;28.15;;;;;;;;;;5004188;28;20030;-69
2022/12/09 06:55:44;;;;;;;114.43;28.40;;;;;;;;;;5002952;28;20033;-69
2022/12/09 06:58:11;;;;;;;102.75;26.55;;;;;;;;;;5004214;28;20140;-70
2022/12/09 07:00:38;;;;;;;101.45;27.40;;;;;;;;;;5001360;28;20396;-71
2022/12/09 07:03:05;;;;;;;95.93;24.63;;;;;;;;;;5002374;28;20058;-69
2022/12/09 07:05:31;;;;;;;106.43;25.90;;;;;;;;;;5004719;28;20053;-71
2022/12/09 07:07:57;;;;;;;99.78;25.67;;;;;;;;;;5004425;28;20029;-71
2022/12/09 07:10:23;;;;;;;111.65;24.63;;;;;;;;;;5001376;28;20221;-71
2022/12/09 07:12:49;;;;;;;101.28;27.35;;;;;;;;;;5002755;28;20060;-71
2022/12/09 07:15:15;;;;;;;117.85;28.65;;;;;;;;;;5002902;28;20119;-70
2022/12/09 07:17:42;;;;;;;129.02;29.77;;;;;;;;;;4989156;28;20542;-69
2022/12/09 07:20:08;;;;;;;131.38;30.95;;;;;;;;;;5003042;28;20037;-69
2022/12/09 07:22:34;;;;;;;159.02;33.70;;;;;;;;;;5005599;28;20550;-71
2022/12/09 07:25:00;;;;;;;161.30;35.95;;;;;;;;;;5009047;28;20026;-71
2022/12/09 07:27:26;;;;;;;186.20;38.85;;;;;;;;;;4977465;28;20044;-70
2022/12/09 07:29:52;;;;;;;236.73;43.78;;;;;;;;;;5005007;28;20117;-71
2022/12/09 07:32:19;;;;;;;223.85;44.75;;;;;;;;;;5009805;28;20037;-71
2022/12/09 07:34:45;;;;;;;228.38;45.03;;;;;;;;;;5006235;28;20042;-71
2022/12/09 07:37:12;;;;;;;274.85;50.60;;;;;;;;;;5008120;28;20376;-71
2022/12/09 07:39:38;;;;;;;265.45;52.20;;;;;;;;;;4990537;28;20053;-70
2022/12/09 07:42:04;;;;;;;288.60;53.72;;;;;;;;;;4991595;28;20570;-71
2022/12/09 07:44:43;;;;;;;281.90;57.38;;;;;;;;;;4992418;28;20034;-70
2022/12/09 07:47:10;;;;;;;304.88;60.15;;;;;;;;;;5006443;28;20064;-73
2022/12/09 07:49:36;;;;;;;328.70;66.15;;;;;;;;;;5008834;28;20037;-71
2022/12/09 07:52:02;;;;;;;402.88;97.00;;;;;;;;;;5010414;28;20045;-68
2022/12/09 07:54:28;;;;;;;397.63;83.80;;;;;;;;;;5006737;28;20491;-69
2022/12/09 07:56:54;;;;;;;406.33;83.95;;;;;;;;;;5008404;28;20103;-70
2022/12/09 07:59:20;;;;;;;405.40;91.20;;;;;;;;;;5003080;28;20048;-70
2022/12/09 08:01:46;;;;;;;395.00;84.13;;;;;;;;;;5005571;28;20100;-69
2022/12/09 08:04:12;;;;;;;417.95;85.55;;;;;;;;;;5007479;28;20026;-72
2022/12/09 08:06:39;;;;;;;400.98;81.80;;;;;;;;;;5001864;28;20442;-75
2022/12/09 08:09:06;;;;;;;379.55;77.82;;;;;;;;;;4999788;28;20756;-75
2022/12/09 08:11:33;;;;;;;389.75;73.85;;;;;;;;;;5006642;28;20042;-72
2022/12/09 08:14:00;;;;;;;355.23;75.03;;;;;;;;;;5004090;28;20026;-75
2022/12/09 08:16:26;;;;;;;383.17;74.55;;;;;;;;;;5012542;28;20120;-74
2022/12/09 08:18:53;;;;;;;363.48;71.80;;;;;;;;;;5007691;28;20522;-73
2022/12/09 08:21:23;;;;;;;381.15;73.10;;;;;;;;;;5005187;28;20112;-73
2022/12/09 08:23:50;;;;;;;336.00;67.43;;;;;;;;;;4997256;28;20044;-74
2022/12/09 08:26:18;;;;;;;363.17;72.50;;;;;;;;;;5013684;28;20507;-74
2022/12/09 08:28:44;;;;;;;369.75;71.18;;;;;;;;;;5005713;28;20104;-74
2022/12/09 08:31:12;;;;;;;361.63;68.82;;;;;;;;;;5004093;28;20162;-74
2022/12/09 08:33:39;;;;;;;372.40;70.45;;;;;;;;;;5002025;28;20099;-73
2022/12/09 08:36:08;;;;;;;357.33;70.25;;;;;;;;;;5001767;28;20044;-74
2022/12/09 08:38:34;;;;;;;345.90;69.35;;;;;;;;;;4998707;28;20479;-75
2022/12/09 08:41:07;;;;;;;361.73;68.90;;;;;;;;;;4992624;28;20022;-75
2022/12/09 08:43:33;;;;;;;362.40;70.47;;;;;;;;;;4987131;28;20058;-75
2022/12/09 08:46:00;;;;;;;356.73;68.40;;;;;;;;;;5000358;28;20014;-75
2022/12/09 08:48:26;;;;;;;358.33;68.93;;;;;;;;;;5002570;28;20041;-76
2022/12/09 08:50:53;;;;;;;361.10;67.47;;;;;;;;;;5002654;28;20056;-75
2022/12/09 08:53:19;;;;;;;364.92;66.47;;;;;;;;;;4990283;28;20057;-76
2022/12/09 08:55:45;;;;;;;358.65;68.82;;;;;;;;;;4996076;28;20049;-76
2022/12/09 08:58:11;;;;;;;363.85;67.53;;;;;;;;;;5006212;28;20041;-75
2022/12/09 09:00:37;;;;;;;356.98;69.53;;;;;;;;;;4988278;28;20141;-76
2022/12/09 09:03:04;;;;;;;347.70;66.75;;;;;;;;;;5006668;28;20022;-74
2022/12/09 09:05:30;;;;;;;310.90;65.20;;;;;;;;;;5003384;28;20144;-76
2022/12/09 09:07:56;;;;;;;339.42;65.95;;;;;;;;;;4996272;28;20026;-78
2022/12/09 09:10:22;;;;;;;341.55;65.88;;;;;;;;;;5004556;28;20033;-77
2022/12/09 09:12:48;;;;;;;409.77;69.97;;;;;;;;;;5004565;28;20070;-78
2022/12/09 09:15:15;;;;;;;350.85;65.82;;;;;;;;;;5001914;28;20034;-77
2022/12/09 09:17:41;;;;;;;332.60;66.22;;;;;;;;;;4991077;28;20057;-77
2022/12/09 09:20:07;;;;;;;348.38;68.05;;;;;;;;;;4990524;28;20048;-78
2022/12/09 09:22:34;;;;;;;348.40;67.65;;;;;;;;;;5012921;28;20042;-78
2022/12/09 09:25:00;;;;;;;321.92;66.85;;;;;;;;;;4992919;28;20121;-77
2022/12/09 09:27:26;;;;;;;300.15;66.38;;;;;;;;;;5016111;28;20140;-77
2022/12/09 09:29:52;;;;;;;284.20;64.72;;;;;;;;;;5001185;28;20065;-78
2022/12/09 09:32:18;;;;;;;278.80;60.10;;;;;;;;;;5000582;28;20039;-77
2022/12/09 09:34:44;;;;;;;293.98;65.50;;;;;;;;;;5003533;28;20149;-77
2022/12/09 09:37:10;;;;;;;294.38;62.92;;;;;;;;;;5008252;28;20128;-78
2022/12/09 09:39:37;;;;;;;292.08;65.47;;;;;;;;;;4993720;28;20045;-77
2022/12/09 09:42:05;;;;;;;313.85;65.32;;;;;;;;;;5011837;28;20038;-78
2022/12/09 09:44:38;;;;;;;273.20;61.85;;;;;;;;;;5005893;28;20525;-78
2022/12/09 09:47:16;;;;;;;249.40;59.13;;;;;;;;;;5004389;28;20049;-78
2022/12/09 09:49:49;;;;;;;256.67;61.22;;;;;;;;;;4998777;28;20042;-78
2022/12/09 09:52:21;;;;;;;240.35;56.63;;;;;;;;;;5006981;28;20029;-78
2022/12/09 09:54:47;;;;;;;221.77;59.30;;;;;;;;;;5005740;28;20458;-78
2022/12/09 09:57:13;;;;;;;261.23;57.92;;;;;;;;;;4994523;28;20498;-77
2022/12/09 09:59:48;;;;;;;244.18;59.72;;;;;;;;;;4999355;28;20030;-77
2022/12/09 10:02:19;;;;;;;236.73;58.03;;;;;;;;;;5003518;28;20053;-78
2022/12/09 10:04:45;;;;;;;229.93;59.70;;;;;;;;;;5006225;28;20030;-78
2022/12/09 10:07:15;;;;;;;221.07;59.10;;;;;;;;;;5007771;28;20033;-70
2022/12/09 10:09:48;;;;;;;224.38;57.60;;;;;;;;;;5006871;28;20113;-70
2022/12/09 10:12:24;;;;;;;227.52;59.83;;;;;;;;;;5002017;28;20037;-70
2022/12/09 10:14:56;;;;;;;233.95;58.67;;;;;;;;;;5003154;28;20033;-70
2022/12/09 10:17:33;;;;;;;238.40;58.40;;;;;;;;;;5004131;28;20124;-69
2022/12/09 10:20:10;;;;;;;240.85;60.38;;;;;;;;;;5002750;28;20184;-72
2022/12/09 10:22:44;;;;;;;244.40;61.75;;;;;;;;;;5008133;28;20529;-70
2022/12/09 10:25:21;;;;;;;227.95;60.33;;;;;;;;;;5004444;28;20038;-70
2022/12/09 10:27:53;;;;;;;206.40;56.92;;;;;;;;;;5001560;28;20038;-70
2022/12/09 10:30:20;;;;;;;235.20;61.28;;;;;;;;;;5003579;28;20025;-69
2022/12/09 10:32:46;;;;;;;222.20;59.58;;;;;;;;;;5005500;28;20038;-70
2022/12/09 10:35:23;;;;;;;212.70;62.28;;;;;;;;;;4991505;28;20492;-70
2022/12/09 10:37:53;;;;;;;212.43;67.00;;;;;;;;;;5006350;28;20522;-70
2022/12/09 10:40:37;;;;;;;259.42;74.55;;;;;;;;;;5001422;28;20084;-70
2022/12/09 10:43:42;;;;;;;185.25;56.47;;;;;;;;;;4998987;28;20526;-70
2022/12/09 10:46:08;;;;;;;151.13;51.17;;;;;;;;;;5004672;28;20065;-69
2022/12/09 10:48:36;;;;;;;128.75;47.78;;;;;;;;;;4999177;28;20038;-69
2022/12/09 10:51:13;;;;;;;129.55;47.58;;;;;;;;;;5001808;28;20027;-70
2022/12/09 10:53:47;;;;;;;122.13;46.47;;;;;;;;;;5002132;28;20132;-70
2022/12/09 10:56:30;;;;;;;115.03;45.88;;;;;;;;;;5002363;28;20353;-69
2022/12/09 10:59:16;;;;;;;116.13;45.05;;;;;;;;;;5006004;28;20025;-69
2022/12/09 11:01:57;;;;;;;114.13;44.58;;;;;;;;;;4997273;28;20128;-69
2022/12/09 11:04:31;;;;;;;105.47;43.35;;;;;;;;;;5003290;28;20026;-69
2022/12/09 11:07:01;;;;;;;101.47;42.30;;;;;;;;;;4990601;28;20127;-69
2022/12/09 11:09:29;;;;;;;96.07;41.60;;;;;;;;;;5003419;28;20057;-69
2022/12/09 11:11:55;;;;;;;102.55;41.38;;;;;;;;;;5010296;28;20026;-69
2022/12/09 11:14:41;;;;;;;104.38;41.65;;;;;;;;;;5008334;28;20062;-69
2022/12/09 11:17:10;;;;;;;108.95;42.30;;;;;;;;;;5005270;28;20026;-68
2022/12/09 11:19:37;;;;;;;98.57;41.42;;;;;;;;;;5002082;28;20031;-68
2022/12/09 11:22:13;;;;;;;100.50;42.05;;;;;;;;;;4991782;28;20495;-68
2022/12/09 11:24:41;;;;;;;95.35;40.95;;;;;;;;;;5008738;28;20414;-69
2022/12/09 11:27:23;;;;;;;100.28;42.40;;;;;;;;;;4997825;28;20061;-68
2022/12/09 11:30:03;;;;;;;84.82;39.03;;;;;;;;;;5006288;28;20037;-68
2022/12/09 11:32:30;;;;;;;90.50;40.75;;;;;;;;;;4993679;28;20026;-70
2022/12/09 11:34:56;;;;;;;85.40;39.30;;;;;;;;;;5004730;28;20057;-69
2022/12/09 11:37:22;;;;;;;83.70;39.05;;;;;;;;;;5003727;28;20038;-69
2022/12/09 11:39:49;;;;;;;85.88;38.03;;;;;;;;;;5006258;28;20034;-71
2022/12/09 11:42:17;;;;;;;88.63;39.90;;;;;;;;;;5006360;28;20033;-69
2022/12/09 11:44:50;;;;;;;81.53;39.92;;;;;;;;;;4995417;28;20438;-69
2022/12/09 11:47:33;;;;;;;90.55;40.20;;;;;;;;;;5031841;28;20029;-69
2022/12/09 11:50:06;;;;;;;81.45;37.13;;;;;;;;;;5003488;28;20018;-69
2022/12/09 11:52:32;;;;;;;89.38;39.40;;;;;;;;;;5013007;28;20037;-70
2022/12/09 11:55:04;;;;;;;85.50;39.83;;;;;;;;;;4995185;28;20125;-69
2022/12/09 11:57:33;;;;;;;91.30;40.05;;;;;;;;;;5007344;28;20042;-69
2022/12/09 12:00:03;;;;;;;84.18;39.55;;;;;;;;;;5003529;28;20080;-69
2022/12/09 12:02:43;;;;;;;84.15;38.40;;;;;;;;;;5006903;28;20121;-69
2022/12/09 12:05:17;;;;;;;80.15;37.42;;;;;;;;;;5006338;28;20051;-69
2022/12/09 12:07:49;;;;;;;75.45;36.35;;;;;;;;;;5006899;28;20496;-69
2022/12/09 12:10:19;;;;;;;82.63;37.45;;;;;;;;;;5002416;28;20483;-68
2022/12/09 12:12:45;;;;;;;78.00;36.08;;;;;;;;;;5003452;28;20029;-69
2022/12/09 12:15:21;;;;;;;87.38;40.08;;;;;;;;;;5004950;28;20071;-69
2022/12/09 12:17:49;;;;;;;77.30;37.92;;;;;;;;;;5009064;28;20045;-68
2022/12/09 12:20:15;;;;;;;86.88;39.00;;;;;;;;;;5006207;28;20034;-69
2022/12/09 12:22:54;;;;;;;75.80;36.92;;;;;;;;;;5002846;28;20038;-69
2022/12/09 12:25:30;;;;;;;79.93;36.80;;;;;;;;;;5005344;28;20050;-69
2022/12/09 12:28:14;;;;;;;81.18;37.92;;;;;;;;;;5005935;28;20034;-69
2022/12/09 12:30:47;;;;;;;81.80;39.63;;;;;;;;;;5005134;28;20034;-69
2022/12/09 12:33:23;;;;;;;78.40;38.50;;;;;;;;;;5005818;28;20491;-69
2022/12/09 12:36:07;;;;;;;76.38;35.45;;;;;;;;;;5004765;28;20198;-68
2022/12/09 12:38:42;;;;;;;80.28;38.15;;;;;;;;;;5007243;28;20033;-69
2022/12/09 12:41:08;;;;;;;86.07;38.42;;;;;;;;;;5005909;28;20049;-69
2022/12/09 12:46:20;;;;;;;87.60;37.88;;;;;;;;;;5005011;28;20108;-69
2022/12/09 12:48:49;;;;;;;79.95;37.17;;;;;;;;;;4999616;28;20058;-69
2022/12/09 12:51:31;;;;;;;79.90;38.08;;;;;;;;;;5007522;28;20022;-69
2022/12/09 12:54:00;;;;;;;75.93;37.08;;;;;;;;;;5012301;28;20025;-69
2022/12/09 12:56:37;;;;;;;75.80;35.92;;;;;;;;;;5009629;28;20052;-69
2022/12/09 12:59:15;;;;;;;77.93;35.58;;;;;;;;;;5008635;28;20049;-69
2022/12/09 13:01:52;;;;;;;80.72;37.80;;;;;;;;;;5006565;28;20049;-69
2022/12/09 13:04:28;;;;;;;77.30;37.67;;;;;;;;;;5006086;28;20030;-69
2022/12/09 13:06:57;;;;;;;73.57;36.67;;;;;;;;;;5009087;28;20033;-69
2022/12/09 13:09:31;;;;;;;80.68;35.65;;;;;;;;;;5012558;28;20463;-69
2022/12/09 13:12:12;;;;;;;79.53;38.17;;;;;;;;;;4995629;28;20026;-69
2022/12/09 13:14:51;;;;;;;75.20;36.70;;;;;;;;;;5011171;28;20063;-69
2022/12/09 13:17:17;;;;;;;80.00;37.47;;;;;;;;;;5016270;28;20033;-69
2022/12/09 13:19:45;;;;;;;84.72;39.53;;;;;;;;;;5017178;28;20271;-69
2022/12/09 13:22:34;;;;;;;84.82;39.58;;;;;;;;;;5009548;28;20052;-69
2022/12/09 13:25:19;;;;;;;85.47;39.50;;;;;;;;;;5002166;28;20022;-69
2022/12/09 13:27:59;;;;;;;77.88;35.13;;;;;;;;;;5009548;28;20364;-68
2022/12/09 13:30:32;;;;;;;82.43;38.10;;;;;;;;;;5006773;28;20076;-68
2022/12/09 13:32:58;;;;;;;79.57;38.10;;;;;;;;;;5008531;28;20463;-69
2022/12/09 13:35:39;;;;;;;81.40;37.47;;;;;;;;;;5008433;28;20510;-68
2022/12/09 13:38:22;;;;;;;83.10;38.67;;;;;;;;;;5012248;28;20056;-69
2022/12/09 13:40:48;;;;;;;75.20;36.42;;;;;;;;;;5009548;28;20479;-70
2022/12/09 13:43:33;;;;;;;80.65;37.72;;;;;;;;;;5009338;28;20049;-68
2022/12/09 13:45:59;;;;;;;81.32;38.40;;;;;;;;;;5010093;28;20048;-69
2022/12/09 13:48:28;;;;;;;86.05;37.65;;;;;;;;;;5007761;28;20084;-70
2022/12/09 13:50:58;;;;;;;94.57;39.35;;;;;;;;;;5006063;28;20096;-70
2022/12/09 13:53:34;;;;;;;84.13;38.13;;;;;;;;;;5008855;28;20026;-69
2022/12/09 13:56:06;;;;;;;82.60;38.95;;;;;;;;;;5005929;28;20300;-68
2022/12/09 13:58:41;;;;;;;86.18;39.50;;;;;;;;;;5007935;28;20042;-69
2022/12/09 14:01:10;;;;;;;86.20;40.72;;;;;;;;;;5007857;28;20131;-69
2022/12/09 14:03:44;;;;;;;76.45;37.15;;;;;;;;;;5003941;28;20044;-71
2022/12/09 14:06:22;;;;;;;81.22;37.63;;;;;;;;;;5007187;28;20022;-70
2022/12/09 14:08:52;;;;;;;71.35;33.95;;;;;;;;;;5007814;28;20042;-71
2022/12/09 14:11:37;;;;;;;67.30;33.63;;;;;;;;;;5010394;28;20403;-69
2022/12/09 14:14:21;;;;;;;68.65;32.55;;;;;;;;;;5006686;28;20053;-69
2022/12/09 14:16:48;;;;;;;59.45;31.75;;;;;;;;;;5007596;28;20045;-70
2022/12/09 14:19:23;;;;;;;76.75;34.20;;;;;;;;;;4989720;28;20061;-70
2022/12/09 14:22:15;;;;;;;65.25;32.05;;;;;;;;;;4991249;28;20521;-67